Time;durP1;ratioP1;P1;durP2;ratioP2;P2;SDS_P1;SDS_P2;PMS_P1;PMS_P2;Temp;Humidity;BMP_temperature;BMP_pressure;BME280_temperature;BME280_humidity;BME280_pressure;Samples;Min_cycle;Max_cycle;Signal;HPM_P1;HPM_P2
2023/07/11 00:02:25;;;;;;;6.83;5.17;;;22.60;86.10;;;;;;4988107;28;20457;-69
2023/07/11 00:04:51;;;;;;;8.27;4.90;;;22.60;86.40;;;;;;4989344;28;20521;-68
2023/07/11 00:07:16;;;;;;;6.27;5.70;;;22.50;87.00;;;;;;4986243;28;20203;-68
2023/07/11 00:09:48;;;;;;;5.60;5.10;;;22.40;87.50;;;;;;4989505;28;20521;-69
2023/07/11 00:12:15;;;;;;;6.23;5.60;;;25.00;90.40;;;;;;4988239;28;20195;-68
2023/07/11 00:14:41;;;;;;;6.63;5.40;;;22.40;88.20;;;;;;4983754;28;21030;-68
2023/07/11 00:17:07;;;;;;;6.63;5.67;;;22.30;88.50;;;;;;4988128;28;21014;-68
2023/07/11 00:19:46;;;;;;;5.63;5.13;;;22.40;88.60;;;;;;4988611;28;20525;-68
2023/07/11 00:22:12;;;;;;;6.53;5.50;;;22.30;88.70;;;;;;4986973;28;20645;-68
2023/07/11 00:24:38;;;;;;;8.27;6.00;;;22.30;89.00;;;;;;4988377;28;20458;-68
2023/07/11 00:27:04;;;;;;;5.83;5.33;;;22.20;89.30;;;;;;4986197;28;20544;-68
2023/07/11 00:29:29;;;;;;;6.47;5.53;;;22.20;89.60;;;;;;4987736;28;20195;-70
2023/07/11 00:31:55;;;;;;;6.43;5.33;;;22.20;90.00;;;;;;4985075;28;20485;-68
2023/07/11 00:34:20;;;;;;;6.27;5.67;;;22.10;90.10;;;;;;4989725;28;20206;-68
2023/07/11 00:36:46;;;;;;;6.40;5.67;;;22.10;90.20;;;;;;4987738;28;20295;-68
2023/07/11 00:39:12;;;;;;;5.73;5.23;;;22.10;90.40;;;;;;4988921;28;20194;-70
2023/07/11 00:41:38;;;;;;;6.50;5.77;;;22.00;90.50;;;;;;4987316;28;20198;-70
2023/07/11 00:44:11;;;;;;;6.73;5.47;;;22.00;90.70;;;;;;4983823;28;20474;-70
2023/07/11 00:46:37;;;;;;;7.15;6.35;;;21.90;90.90;;;;;;4984670;28;20648;-70
2023/07/11 00:49:03;;;;;;;6.83;5.83;;;21.80;91.10;;;;;;5002708;28;20189;-68
2023/07/11 00:51:33;;;;;;;6.30;5.70;;;21.90;91.30;;;;;;4986263;28;20207;-69
2023/07/11 00:54:01;;;;;;;6.35;5.70;;;22.40;91.50;;;;;;4987058;28;20466;-68
2023/07/11 00:56:31;;;;;;;7.00;6.20;;;21.80;91.30;;;;;;4988614;28;20775;-68
2023/07/11 00:58:57;;;;;;;6.57;5.97;;;21.80;91.40;;;;;;4986349;28;20183;-68
2023/07/11 01:01:24;;;;;;;8.02;6.40;;;21.70;91.70;;;;;;4987469;28;20278;-68
2023/07/11 01:03:52;;;;;;;7.30;6.60;;;21.70;91.60;;;;;;4988463;28;20302;-68
2023/07/11 01:06:22;;;;;;;7.43;6.70;;;21.80;91.70;;;;;;4987085;28;20195;-68
2023/07/11 01:08:50;;;;;;;9.25;7.50;;;21.70;91.80;;;;;;4986122;28;20640;-68
2023/07/11 01:11:16;;;;;;;8.27;7.47;;;21.70;91.80;;;;;;4988365;28;20218;-68
2023/07/11 01:13:43;;;;;;;9.68;8.20;;;21.60;91.70;;;;;;4985362;28;20302;-68
2023/07/11 01:16:09;;;;;;;8.00;7.30;;;21.70;91.60;;;;;;4988902;28;20182;-68
2023/07/11 01:18:35;;;;;;;10.00;7.60;;;21.60;91.80;;;;;;4987488;28;20182;-68
2023/07/11 01:21:04;;;;;;;8.85;7.95;;;21.60;92.00;;;;;;4982768;28;20788;-68
2023/07/11 01:23:30;;;;;;;8.13;7.32;;;21.60;92.00;;;;;;4986363;28;20587;-68
2023/07/11 01:26:01;;;;;;;10.68;9.57;;;21.50;92.10;;;;;;4991063;28;20279;-68
2023/07/11 01:28:27;;;;;;;8.98;8.10;;;21.50;92.20;;;;;;4985929;28;20518;-69
2023/07/11 01:30:53;;;;;;;9.10;8.20;;;21.50;92.50;;;;;;4988205;28;20207;-68
2023/07/11 01:33:19;;;;;;;9.60;8.00;;;21.40;92.70;;;;;;4988703;28;20246;-68
2023/07/11 01:35:44;;;;;;;9.10;8.20;;;21.30;92.90;;;;;;4986586;28;20810;-68
2023/07/11 01:38:10;;;;;;;10.33;8.70;;;21.30;93.00;;;;;;4987319;28;20259;-69
2023/07/11 01:40:35;;;;;;;9.07;8.17;;;21.20;93.10;;;;;;4984702;28;20199;-68
2023/07/11 01:43:02;;;;;;;8.60;7.90;;;21.30;93.10;;;;;;4984786;28;20653;-70
2023/07/11 01:45:27;;;;;;;9.48;8.48;;;21.30;93.10;;;;;;4986884;28;20274;-70
2023/07/11 01:47:53;;;;;;;9.57;8.57;;;21.30;93.10;;;;;;4987762;28;20651;-67
2023/07/11 01:50:19;;;;;;;10.97;8.70;;;21.20;93.00;;;;;;4988125;28;20192;-70
2023/07/11 01:52:44;;;;;;;10.50;8.50;;;21.20;93.10;;;;;;4982474;28;20231;-67
2023/07/11 01:55:10;;;;;;;12.50;9.70;;;21.30;93.20;;;;;;4988487;28;20743;-68
2023/07/11 01:57:36;;;;;;;9.70;8.70;;;21.20;93.20;;;;;;4985911;28;20176;-68
2023/07/11 02:00:02;;;;;;;10.87;8.73;;;21.20;93.30;;;;;;4988318;28;20234;-68
2023/07/11 02:02:27;;;;;;;12.43;9.50;;;21.10;93.00;;;;;;4990089;28;20191;-67
2023/07/11 02:04:53;;;;;;;10.23;8.63;;;21.10;93.30;;;;;;4991024;28;20195;-67
2023/07/11 02:07:18;;;;;;;9.07;8.23;;;21.10;93.10;;;;;;4989302;28;20250;-68
2023/07/11 02:09:44;;;;;;;12.97;9.90;;;21.10;92.90;;;;;;4990991;28;20701;-69
2023/07/11 02:12:10;;;;;;;11.87;9.93;;;21.10;92.90;;;;;;4991389;28;20806;-69
2023/07/11 02:14:36;;;;;;;10.30;9.33;;;21.00;93.20;;;;;;4991267;28;20210;-67
2023/07/11 02:17:02;;;;;;;10.98;9.50;;;21.00;93.30;;;;;;4989826;28;20440;-69
2023/07/11 02:19:28;;;;;;;12.43;9.90;;;21.00;93.20;;;;;;4990769;28;20221;-69
2023/07/11 02:21:54;;;;;;;10.90;9.20;;;21.00;93.30;;;;;;4990775;28;20987;-68
2023/07/11 02:24:20;;;;;;;11.88;9.93;;;21.40;93.60;;;;;;4986437;28;20195;-68
2023/07/11 02:26:46;;;;;;;10.80;9.70;;;21.00;93.40;;;;;;4991186;28;20191;-68
2023/07/11 02:29:12;;;;;;;12.95;9.52;;;21.00;93.40;;;;;;4988850;28;20222;-68
2023/07/11 02:31:38;;;;;;;11.23;8.57;;;21.00;93.50;;;;;;4989941;28;20703;-68
2023/07/11 02:34:04;;;;;;;10.40;8.60;;;21.00;93.50;;;;;;4991400;28;20832;-68
2023/07/11 02:36:30;;;;;;;10.60;9.00;;;21.00;93.40;;;;;;4990390;28;20439;-68
2023/07/11 02:38:57;;;;;;;17.08;10.05;;;21.00;93.50;;;;;;4990718;28;20266;-68
2023/07/11 02:41:22;;;;;;;10.80;9.80;;;21.00;93.60;;;;;;4989145;28;20232;-68
2023/07/11 02:43:48;;;;;;;10.77;9.47;;;21.20;94.00;;;;;;4985598;28;20321;-68
2023/07/11 02:46:15;;;;;;;11.33;10.03;;;20.90;93.90;;;;;;4990093;28;20564;-68
2023/07/11 02:48:41;;;;;;;12.45;9.30;;;20.90;94.10;;;;;;4990459;28;20188;-68
2023/07/11 02:51:07;;;;;;;10.60;9.40;;;20.90;94.00;;;;;;4989789;28;20584;-68
2023/07/11 02:53:33;;;;;;;12.13;9.57;;;20.80;94.20;;;;;;4991072;28;20334;-69
2023/07/11 02:55:58;;;;;;;10.47;9.33;;;20.90;94.30;;;;;;4990936;28;20184;-67
2023/07/11 02:58:24;;;;;;;10.40;9.30;;;20.90;94.10;;;;;;4988389;28;20324;-69
2023/07/11 03:00:56;;;;;;;11.60;9.13;;;20.90;94.10;;;;;;4989546;28;20200;-69
2023/07/11 03:03:21;;;;;;;10.77;9.50;;;20.90;94.10;;;;;;4990128;28;20211;-69
2023/07/11 03:05:49;;;;;;;9.07;8.13;;;20.80;94.30;;;;;;4991177;28;20193;-69
2023/07/11 03:08:15;;;;;;;13.38;9.88;;;20.90;94.20;;;;;;4985944;28;20579;-69
2023/07/11 03:10:41;;;;;;;11.93;9.25;;;20.90;94.10;;;;;;4990552;28;20219;-68
2023/07/11 03:13:07;;;;;;;12.43;9.85;;;20.80;94.20;;;;;;4984677;28;20198;-69
2023/07/11 03:15:34;;;;;;;11.87;10.57;;;20.80;94.30;;;;;;4990921;28;20263;-70
2023/07/11 03:18:00;;;;;;;10.90;9.15;;;20.70;94.60;;;;;;4989456;28;20432;-70
2023/07/11 03:20:25;;;;;;;11.25;8.75;;;20.70;94.90;;;;;;4988359;28;20182;-70
2023/07/11 03:22:51;;;;;;;9.97;8.93;;;20.70;95.00;;;;;;4987170;28;20207;-71
2023/07/11 03:25:17;;;;;;;12.83;10.20;;;20.60;95.00;;;;;;4990233;28;20179;-70
2023/07/11 03:27:42;;;;;;;11.20;10.00;;;20.50;95.30;;;;;;4983179;28;20184;-68
2023/07/11 03:30:08;;;;;;;11.77;9.03;;;20.60;95.70;;;;;;4989636;28;20179;-68
2023/07/11 03:32:34;;;;;;;11.83;8.93;;;20.60;95.50;;;;;;4987364;28;20215;-70
2023/07/11 03:34:59;;;;;;;9.90;8.77;;;20.60;95.80;;;;;;4988836;28;20439;-70
2023/07/11 03:37:25;;;;;;;10.20;9.20;;;20.50;95.70;;;;;;4990337;28;20191;-70
2023/07/11 03:39:51;;;;;;;11.17;9.30;;;20.50;95.70;;;;;;4988232;28;20286;-70
2023/07/11 03:42:16;;;;;;;10.43;9.43;;;20.50;95.80;;;;;;4990053;28;20671;-70
2023/07/11 03:44:42;;;;;;;9.93;9.00;;;20.50;95.80;;;;;;4987472;28;20203;-71
2023/07/11 03:47:08;;;;;;;9.45;8.50;;;20.60;95.80;;;;;;4987642;28;20194;-73
2023/07/11 03:49:34;;;;;;;10.50;9.50;;;20.60;95.80;;;;;;4990371;28;20183;-70
2023/07/11 03:52:00;;;;;;;10.20;9.10;;;20.60;95.70;;;;;;4981831;28;20212;-63
2023/07/11 03:54:25;;;;;;;10.10;9.07;;;20.70;95.80;;;;;;4988375;28;20618;-64
2023/07/11 03:56:51;;;;;;;10.63;9.53;;;20.70;95.70;;;;;;4989670;28;20450;-65
2023/07/11 03:59:17;;;;;;;14.20;10.47;;;20.60;95.90;;;;;;4983002;28;20250;-65
2023/07/11 04:01:43;;;;;;;11.88;9.55;;;20.60;96.00;;;;;;4986586;28;20457;-65
2023/07/11 04:04:09;;;;;;;10.90;9.40;;;20.60;96.00;;;;;;4984706;28;20210;-62
2023/07/11 04:06:34;;;;;;;10.60;9.60;;;20.60;96.00;;;;;;4986316;28;20640;-64
2023/07/11 04:09:00;;;;;;;12.10;11.00;;;20.70;95.70;;;;;;4989146;28;20199;-63
2023/07/11 04:11:26;;;;;;;13.80;9.33;;;20.60;96.00;;;;;;4984089;28;20463;-65
2023/07/11 04:13:51;;;;;;;10.17;9.17;;;20.60;96.00;;;;;;4981853;28;20242;-65
2023/07/11 04:16:17;;;;;;;10.30;9.00;;;21.70;96.50;;;;;;4985213;28;20649;-65
2023/07/11 04:18:42;;;;;;;11.00;9.40;;;20.80;96.00;;;;;;4987129;28;20236;-64
2023/07/11 04:21:08;;;;;;;11.90;9.70;;;20.70;95.60;;;;;;4985929;28;20196;-64
2023/07/11 04:23:34;;;;;;;10.50;9.40;;;20.70;96.00;;;;;;4985634;28;20242;-64
2023/07/11 04:25:59;;;;;;;12.30;10.13;;;20.60;96.20;;;;;;4984237;28;20599;-64
2023/07/11 04:28:25;;;;;;;11.63;8.77;;;20.60;96.60;;;;;;4987509;28;20945;-63
2023/07/11 04:30:50;;;;;;;11.07;8.77;;;20.80;96.50;;;;;;4987760;28;20210;-63
2023/07/11 04:33:16;;;;;;;10.77;9.37;;;21.00;96.10;;;;;;4984430;28;20214;-63
2023/07/11 04:35:43;;;;;;;10.67;9.40;;;20.90;95.70;;;;;;4987676;28;20198;-64
2023/07/11 04:38:09;;;;;;;10.27;9.20;;;20.90;95.90;;;;;;4986540;28;20218;-64
2023/07/11 04:40:35;;;;;;;9.83;8.93;;;20.90;95.80;;;;;;4987482;28;20180;-63
2023/07/11 04:43:01;;;;;;;11.03;9.20;;;21.00;95.90;;;;;;4986332;28;20220;-63
2023/07/11 04:45:26;;;;;;;9.30;8.30;;;21.00;95.80;;;;;;4986316;28;20657;-68
2023/07/11 04:47:52;;;;;;;9.40;8.40;;;21.30;95.70;;;;;;4987680;28;20437;-67
2023/07/11 04:50:18;;;;;;;9.27;8.27;;;21.40;95.40;;;;;;4988827;28;20180;-67
2023/07/11 04:52:44;;;;;;;8.83;8.03;;;21.50;95.00;;;;;;4983810;28;20253;-68
2023/07/11 04:55:11;;;;;;;10.50;9.40;;;21.60;95.00;;;;;;4984617;28;20553;-69
2023/07/11 04:57:36;;;;;;;10.73;9.60;;;21.80;94.80;;;;;;4984566;28;20763;-69
2023/07/11 05:00:03;;;;;;;10.97;9.70;;;21.80;94.60;;;;;;4986742;28;20260;-68
2023/07/11 05:02:29;;;;;;;8.90;8.00;;;21.80;94.40;;;;;;4987743;28;20242;-71
2023/07/11 05:04:55;;;;;;;9.70;8.37;;;21.80;94.60;;;;;;4988770;28;20434;-71
2023/07/11 05:07:20;;;;;;;10.50;8.60;;;21.90;94.60;;;;;;4985166;28;20187;-71
2023/07/11 05:09:46;;;;;;;10.67;9.53;;;22.10;94.70;;;;;;4983259;28;20214;-71
2023/07/11 05:12:11;;;;;;;10.27;8.87;;;22.00;94.50;;;;;;4986141;28;20219;-71
2023/07/11 05:14:37;;;;;;;9.73;8.73;;;22.10;94.40;;;;;;4986191;28;20680;-71
2023/07/11 05:17:03;;;;;;;9.80;8.80;;;22.10;94.20;;;;;;4986633;28;20179;-71
2023/07/11 05:19:29;;;;;;;11.40;10.30;;;22.20;94.30;;;;;;5001482;28;20512;-71
2023/07/11 05:21:54;;;;;;;9.83;8.93;;;22.20;94.10;;;;;;4986194;28;20184;-71
2023/07/11 05:24:20;;;;;;;9.77;8.87;;;22.30;93.90;;;;;;4985570;28;20580;-71
2023/07/11 05:26:45;;;;;;;9.77;8.77;;;22.50;93.70;;;;;;4986875;28;20213;-71
2023/07/11 05:29:11;;;;;;;9.47;8.33;;;22.60;93.10;;;;;;4982517;28;20727;-71
2023/07/11 05:31:37;;;;;;;12.43;8.70;;;22.70;93.40;;;;;;4986497;28;20219;-71
2023/07/11 05:34:02;;;;;;;9.80;8.77;;;22.80;93.20;;;;;;4984937;28;20259;-71
2023/07/11 05:36:35;;;;;;;8.63;7.60;;;22.90;92.90;;;;;;4989173;28;20187;-70
2023/07/11 05:39:06;;;;;;;10.03;9.03;;;23.00;92.70;;;;;;4989267;28;20183;-69
2023/07/11 05:41:33;;;;;;;9.00;8.10;;;23.10;92.40;;;;;;4990112;28;20447;-70
2023/07/11 05:43:59;;;;;;;9.90;8.90;;;23.20;92.30;;;;;;4986374;28;20806;-70
2023/07/11 05:46:26;;;;;;;8.70;7.90;;;23.40;92.20;;;;;;4989011;28;20529;-71
2023/07/11 05:48:53;;;;;;;9.70;8.33;;;23.60;92.00;;;;;;4990337;28;20265;-69
2023/07/11 05:51:20;;;;;;;9.37;7.93;;;23.70;91.60;;;;;;4985016;28;20515;-70
2023/07/11 05:53:46;;;;;;;9.03;8.13;;;24.00;91.20;;;;;;4988708;28;20561;-70
2023/07/11 05:56:13;;;;;;;8.83;8.00;;;24.30;91.00;;;;;;4991744;28;20812;-70
2023/07/11 05:58:38;;;;;;;9.67;7.93;;;24.40;90.40;;;;;;4988098;28;20435;-70
2023/07/11 06:01:04;;;;;;;13.07;9.77;;;24.60;90.70;;;;;;4988684;28;20505;-69
2023/07/11 06:03:31;;;;;;;8.30;7.50;;;24.70;89.30;;;;;;4990345;28;20242;-69
2023/07/11 06:06:02;;;;;;;14.90;8.63;;;24.80;88.80;;;;;;4988661;28;20449;-70
2023/07/11 06:08:29;;;;;;;9.80;8.90;;;25.00;88.50;;;;;;4988495;28;20958;-70
2023/07/11 06:10:56;;;;;;;8.10;7.10;;;25.10;88.60;;;;;;4989513;28;20875;-70
2023/07/11 06:13:22;;;;;;;8.50;7.70;;;25.20;88.30;;;;;;4989209;28;20467;-70
2023/07/11 06:15:47;;;;;;;8.30;7.03;;;25.40;88.00;;;;;;4987540;28;20500;-70
2023/07/11 06:18:13;;;;;;;8.60;7.70;;;25.60;87.40;;;;;;4987077;28;20768;-69
2023/07/11 06:20:39;;;;;;;10.10;7.90;;;25.80;86.90;;;;;;4988168;28;20192;-71
2023/07/11 06:23:04;;;;;;;9.80;7.80;;;25.80;85.20;;;;;;4988681;28;20204;-70
2023/07/11 06:25:30;;;;;;;7.83;7.13;;;25.70;84.70;;;;;;4991514;28;21844;-68
2023/07/11 06:27:55;;;;;;;7.93;7.17;;;25.80;84.30;;;;;;4988015;28;20189;-70
2023/07/11 06:30:21;;;;;;;9.43;7.60;;;26.10;83.00;;;;;;4987291;28;20190;-70
2023/07/11 06:32:46;;;;;;;9.83;7.20;;;26.20;82.30;;;;;;4989128;28;20264;-71
2023/07/11 06:35:12;;;;;;;14.13;7.80;;;26.40;81.80;;;;;;4990440;28;20205;-71
2023/07/11 06:37:38;;;;;;;10.43;8.97;;;26.50;80.80;;;;;;4987714;28;20190;-70
2023/07/11 06:40:08;;;;;;;7.03;6.33;;;26.50;81.20;;;;;;4986308;28;20187;-70
2023/07/11 06:42:34;;;;;;;7.30;6.53;;;26.80;78.40;;;;;;4986095;28;20194;-70
2023/07/11 06:44:59;;;;;;;8.30;6.27;;;26.80;79.20;;;;;;4988537;28;20449;-71
2023/07/11 06:47:25;;;;;;;8.20;6.30;;;26.90;78.50;;;;;;4987322;28;20206;-70
2023/07/11 06:49:50;;;;;;;7.07;6.37;;;27.10;78.30;;;;;;4987382;28;20294;-70
2023/07/11 06:52:16;;;;;;;7.43;6.57;;;27.30;77.10;;;;;;4989907;28;20215;-70
2023/07/11 06:54:41;;;;;;;6.80;6.20;;;27.60;76.40;;;;;;4990943;28;20562;-72
2023/07/11 06:57:07;;;;;;;7.20;6.60;;;27.90;76.00;;;;;;4991203;28;20203;-72
2023/07/11 06:59:33;;;;;;;7.50;6.70;;;28.20;75.50;;;;;;4989511;28;20255;-71
2023/07/11 07:01:58;;;;;;;8.13;6.00;;;28.50;73.60;;;;;;4983950;28;20191;-70
2023/07/11 07:04:24;;;;;;;9.70;6.53;;;28.70;72.60;;;;;;4981871;28;20216;-70
2023/07/11 07:06:49;;;;;;;8.07;6.90;;;28.60;70.40;;;;;;4984473;28;20197;-70
2023/07/11 07:09:15;;;;;;;7.07;6.10;;;28.90;70.70;;;;;;4988614;28;20194;-74
2023/07/11 07:11:40;;;;;;;6.30;5.70;;;29.20;69.60;;;;;;4990212;28;20222;-72
2023/07/11 07:14:08;;;;;;;7.17;6.50;;;29.30;68.50;;;;;;4988287;28;20214;-75
2023/07/11 07:16:38;;;;;;;8.20;7.33;;;29.50;68.00;;;;;;4990868;28;20190;-73
2023/07/11 07:19:05;;;;;;;7.80;6.00;;;29.60;68.30;;;;;;4988706;28;20438;-73
2023/07/11 07:21:31;;;;;;;8.60;6.23;;;30.80;66.00;;;;;;4986598;28;21074;-71
2023/07/11 07:23:57;;;;;;;8.40;6.73;;;32.40;61.60;;;;;;4984447;28;20542;-72
2023/07/11 07:26:23;;;;;;;20.63;18.77;;;32.90;57.50;;;;;;4987775;28;20443;-74
2023/07/11 07:28:49;;;;;;;10.43;9.30;;;33.40;56.30;;;;;;4986110;28;20596;-70
2023/07/11 07:31:15;;;;;;;6.57;5.83;;;34.60;54.00;;;;;;4988824;28;20470;-73
2023/07/11 07:33:41;;;;;;;6.43;5.90;;;36.90;50.60;;;;;;4981458;28;20220;-70
2023/07/11 07:36:08;;;;;;;5.87;5.33;;;39.30;46.40;;;;;;4988618;28;20218;-70
2023/07/11 07:38:35;;;;;;;6.40;5.83;;;41.30;42.10;;;;;;4988641;28;21438;-71
2023/07/11 07:41:03;;;;;;;6.17;5.67;;;42.40;38.40;;;;;;4989735;28;21265;-72
2023/07/11 07:43:30;;;;;;;8.40;6.50;;;43.20;36.50;;;;;;4987423;28;20459;-74
2023/07/11 07:45:58;;;;;;;8.60;6.10;;;44.20;34.60;;;;;;4988168;28;20474;-72
2023/07/11 07:48:24;;;;;;;7.33;5.90;;;44.60;32.80;;;;;;4987990;28;20470;-73
2023/07/11 07:50:49;;;;;;;6.27;5.87;;;44.80;32.20;;;;;;4988861;28;20493;-74
2023/07/11 07:53:16;;;;;;;7.47;6.07;;;45.30;32.10;;;;;;4978233;28;20980;-75
2023/07/11 07:55:42;;;;;;;6.40;5.80;;;46.40;30.80;;;;;;4987985;28;20187;-74
2023/07/11 07:58:10;;;;;;;6.27;5.87;;;47.50;29.30;;;;;;4981982;28;20440;-75
2023/07/11 08:00:36;;;;;;;6.20;5.60;;;47.80;28.60;;;;;;4987014;28;20454;-73
2023/07/11 08:03:02;;;;;;;7.07;6.37;;;47.90;28.10;;;;;;4988450;28;20469;-73
2023/07/11 08:05:27;;;;;;;8.43;6.47;;;48.30;27.70;;;;;;4987736;28;20435;-72
2023/07/11 08:07:53;;;;;;;7.30;6.67;;;48.60;27.10;;;;;;4987130;28;20195;-72
2023/07/11 08:10:18;;;;;;;8.77;6.00;;;45.70;28.30;;;;;;4986134;28;20245;-73
2023/07/11 08:12:44;;;;;;;6.57;6.00;;;43.50;30.60;;;;;;4986311;28;20790;-70
2023/07/11 08:15:11;;;;;;;8.50;6.13;;;43.60;31.00;;;;;;4988750;28;20207;-70
2023/07/11 08:17:38;;;;;;;6.63;5.83;;;43.10;31.40;;;;;;5000114;28;20937;-70
2023/07/11 08:20:06;;;;;;;8.67;5.70;;;44.30;31.00;;;;;;4988823;28;20431;-70
2023/07/11 08:22:32;;;;;;;10.63;7.70;;;45.20;30.10;;;;;;4984569;28;20450;-72
2023/07/11 08:24:58;;;;;;;6.63;6.13;;;45.70;29.10;;;;;;4986692;28;20439;-72
2023/07/11 08:27:23;;;;;;;6.70;6.10;;;44.60;29.60;;;;;;4988077;28;20203;-71
2023/07/11 08:29:49;;;;;;;7.60;7.00;;;43.50;31.00;;;;;;4981010;28;20187;-72
2023/07/11 08:32:15;;;;;;;7.40;6.80;;;44.50;30.40;;;;;;4987805;28;20237;-71
2023/07/11 08:34:41;;;;;;;6.70;6.20;;;45.90;29.30;;;;;;4986308;28;20707;-72
2023/07/11 08:37:08;;;;;;;7.00;6.40;;;45.50;29.30;;;;;;4986277;28;20484;-71
2023/07/11 08:39:35;;;;;;;8.37;6.17;;;45.20;29.50;;;;;;4985443;28;20439;-71
2023/07/11 08:42:06;;;;;;;6.33;5.83;;;45.30;29.50;;;;;;4985995;28;20439;-71
2023/07/11 08:44:36;;;;;;;6.33;5.80;;;45.90;29.30;;;;;;4984476;28;20454;-71
2023/07/11 08:47:43;;;;;;;6.00;5.60;;;45.70;29.00;;;;;;4986298;28;20500;-70
2023/07/11 08:50:17;;;;;;;6.83;6.33;;;45.70;29.20;;;;;;4927179;29;20574;-71
2023/07/11 08:52:44;;;;;;;6.37;5.97;;;45.00;29.20;;;;;;4924748;29;20488;-71
2023/07/11 08:55:24;;;;;;;7.53;6.83;;;44.90;29.80;;;;;;4960779;28;20477;-71
2023/07/11 08:58:02;;;;;;;7.97;7.23;;;45.30;29.70;;;;;;4982626;28;20438;-71
2023/07/11 09:00:29;;;;;;;6.70;6.30;;;45.80;29.50;;;;;;4987033;28;20955;-70
2023/07/11 09:03:07;;;;;;;7.93;7.03;;;45.90;29.10;;;;;;4988180;28;20481;-71
2023/07/11 09:05:55;;;;;;;6.77;6.27;;;46.30;29.50;;;;;;4984961;28;20433;-72
2023/07/11 09:08:21;;;;;;;6.73;6.23;;;46.50;29.50;;;;;;4984660;28;20455;-71
2023/07/11 09:11:35;;;;;;;6.90;6.40;;;46.30;29.10;;;;;;4984875;28;20457;-71
2023/07/11 09:14:18;;;;;;;7.40;6.80;;;46.20;29.20;;;;;;4969462;28;20966;-73
2023/07/11 09:17:01;;;;;;;7.50;6.80;;;46.30;28.80;;;;;;4987092;28;20434;-73
2023/07/11 09:19:58;;;;;;;6.40;6.00;;;45.90;29.20;;;;;;4983923;28;20435;-73
2023/07/11 09:22:50;;;;;;;7.37;6.87;;;45.60;29.80;;;;;;4985546;28;20478;-73
2023/07/11 09:25:25;;;;;;;7.23;6.70;;;46.20;29.60;;;;;;4985038;28;20476;-70
2023/07/11 09:27:52;;;;;;;7.97;7.33;;;46.10;28.90;;;;;;4984680;28;20979;-72
2023/07/11 09:30:29;;;;;;;7.30;6.73;;;45.00;30.20;;;;;;4984847;28;20438;-72
2023/07/11 09:33:12;;;;;;;6.90;6.47;;;46.00;29.80;;;;;;4983381;28;20516;-72
2023/07/11 09:35:38;;;;;;;8.87;8.10;;;46.50;29.10;;;;;;4983928;28;20438;-73
2023/07/11 09:38:13;;;;;;;7.27;6.67;;;46.30;28.90;;;;;;4983771;28;20439;-72
2023/07/11 09:40:44;;;;;;;7.07;6.57;;;46.70;29.00;;;;;;4983976;28;20452;-72
2023/07/11 09:43:10;;;;;;;7.27;6.70;;;46.90;28.70;;;;;;4984066;28;20466;-72
2023/07/11 09:45:41;;;;;;;7.33;6.73;;;47.40;28.00;;;;;;4984008;28;20477;-72
2023/07/11 09:48:34;;;;;;;6.97;6.43;;;47.00;28.50;;;;;;4983396;28;20218;-71
2023/07/11 09:51:08;;;;;;;6.17;5.87;;;47.40;27.90;;;;;;4974547;28;20470;-72
2023/07/11 09:53:34;;;;;;;7.60;7.00;;;47.90;27.90;;;;;;4984516;28;20469;-73
2023/07/11 09:56:02;;;;;;;7.90;7.30;;;48.60;27.20;;;;;;4984122;28;20445;-72
2023/07/11 09:58:31;;;;;;;7.40;6.70;;;48.10;27.60;;;;;;4977953;28;20234;-71
2023/07/11 10:01:00;;;;;;;7.80;7.17;;;47.80;27.30;;;;;;4983007;28;20534;-71
2023/07/11 10:03:28;;;;;;;8.10;7.43;;;47.00;28.10;;;;;;4986908;28;20477;-72
2023/07/11 10:05:54;;;;;;;7.77;7.17;;;47.00;28.10;;;;;;4986899;28;20485;-71
2023/07/11 10:08:28;;;;;;;8.20;7.60;;;47.20;28.40;;;;;;4985887;28;20955;-72
2023/07/11 10:11:00;;;;;;;7.70;7.10;;;47.00;28.10;;;;;;4982825;28;20443;-72
2023/07/11 10:13:26;;;;;;;7.70;7.10;;;46.30;28.50;;;;;;4981846;28;20543;-72
2023/07/11 10:15:54;;;;;;;6.37;5.87;;;46.60;28.80;;;;;;4982452;28;20585;-72
2023/07/11 10:18:24;;;;;;;7.37;6.87;;;46.40;29.00;;;;;;4986256;28;20183;-72
2023/07/11 10:20:58;;;;;;;7.20;6.57;;;46.80;28.70;;;;;;4984242;28;20799;-72
2023/07/11 10:23:25;;;;;;;8.10;7.50;;;46.80;28.40;;;;;;4990014;28;20450;-72
2023/07/11 10:26:05;;;;;;;7.60;6.90;;;45.40;28.90;;;;;;5004245;28;20445;-72
2023/07/11 10:28:39;;;;;;;9.53;7.03;;;44.00;30.00;;;;;;4985203;28;20529;-71
2023/07/11 10:31:25;;;;;;;7.50;6.90;;;42.90;30.70;;;;;;4983947;28;20862;-71
2023/07/11 10:34:01;;;;;;;9.40;8.50;;;42.10;32.00;;;;;;4987619;28;21103;-71
2023/07/11 10:36:33;;;;;;;7.10;6.43;;;40.70;33.80;;;;;;4988139;28;20434;-71
2023/07/11 10:39:11;;;;;;;8.57;7.80;;;40.00;35.00;;;;;;4990012;28;20802;-72
2023/07/11 10:41:57;;;;;;;7.90;7.30;;;39.90;35.40;;;;;;4987224;28;20533;-71
2023/07/11 10:44:40;;;;;;;7.87;7.17;;;39.00;36.70;;;;;;4987430;28;20496;-71
2023/07/11 10:47:08;;;;;;;7.20;6.57;;;39.20;37.20;;;;;;4987783;28;20434;-72
2023/07/11 10:49:51;;;;;;;8.90;8.17;;;39.30;37.20;;;;;;4988254;28;20442;-72
2023/07/11 10:52:24;;;;;;;7.60;6.90;;;39.70;36.70;;;;;;4985720;28;20470;-71
2023/07/11 10:54:52;;;;;;;8.10;7.50;;;40.20;36.20;;;;;;4989781;28;20443;-71
2023/07/11 10:57:41;;;;;;;8.27;7.57;;;40.20;36.30;;;;;;4989999;28;20438;-72
2023/07/11 11:00:57;;;;;;;8.00;7.50;;;40.80;35.60;;;;;;4988447;28;20854;-72
2023/07/11 11:03:36;;;;;;;7.87;7.03;;;41.30;35.10;;;;;;4931230;29;20454;-71
2023/07/11 11:06:29;;;;;;;7.07;6.47;;;41.20;35.20;;;;;;4976104;28;20447;-72
2023/07/11 11:09:06;;;;;;;6.93;6.43;;;41.50;35.00;;;;;;4982415;28;20497;-72
2023/07/11 11:11:52;;;;;;;8.30;7.50;;;42.30;34.70;;;;;;4984841;28;20469;-71
2023/07/11 11:14:27;;;;;;;7.60;7.10;;;42.30;34.00;;;;;;4984447;28;20466;-71
2023/07/11 11:17:07;;;;;;;8.57;7.90;;;42.70;33.30;;;;;;4983540;28;20430;-71
2023/07/11 11:19:42;;;;;;;9.53;8.73;;;43.20;32.90;;;;;;4982701;28;20996;-72
2023/07/11 11:22:17;;;;;;;8.10;7.30;;;43.10;33.20;;;;;;4985588;28;20541;-71
2023/07/11 11:24:57;;;;;;;8.27;7.53;;;43.00;32.90;;;;;;4986314;28;20840;-71
2023/07/11 11:27:45;;;;;;;7.80;7.30;;;43.70;32.90;;;;;;4985880;28;20477;-72
2023/07/11 11:30:34;;;;;;;8.07;7.47;;;43.60;32.50;;;;;;4999029;28;20502;-70
2023/07/11 11:33:29;;;;;;;8.53;7.67;;;43.80;32.10;;;;;;4999345;28;20503;-73
2023/07/11 11:36:04;;;;;;;8.20;7.50;;;43.80;32.30;;;;;;4985459;28;20516;-74
2023/07/11 11:38:32;;;;;;;8.37;7.57;;;43.50;32.50;;;;;;4986049;28;20446;-74
2023/07/11 11:41:02;;;;;;;8.07;7.47;;;44.10;32.10;;;;;;4999157;28;20446;-73
2023/07/11 11:43:28;;;;;;;8.63;7.80;;;44.10;31.80;;;;;;4985846;28;20485;-71
2023/07/11 11:45:55;;;;;;;7.83;7.20;;;44.20;31.60;;;;;;4983511;28;20454;-73
2023/07/11 11:48:27;;;;;;;7.60;7.10;;;43.30;32.30;;;;;;4985379;28;20184;-71
2023/07/11 11:50:55;;;;;;;8.00;7.40;;;42.10;33.20;;;;;;4983477;28;20979;-72
2023/07/11 11:53:43;;;;;;;7.80;7.20;;;41.70;33.90;;;;;;4996642;28;20467;-73
2023/07/11 11:56:15;;;;;;;8.30;7.60;;;41.60;34.00;;;;;;4999714;28;20530;-72
2023/07/11 11:58:52;;;;;;;7.97;7.37;;;41.30;34.40;;;;;;4983710;28;20442;-70
2023/07/11 12:01:55;;;;;;;7.67;6.97;;;41.10;34.70;;;;;;4982632;28;20513;-70
2023/07/11 12:04:32;;;;;;;8.80;7.90;;;40.30;35.50;;;;;;4945841;28;20491;-70
2023/07/11 12:07:10;;;;;;;8.30;7.70;;;39.50;36.50;;;;;;4983583;28;20508;-71
2023/07/11 12:09:48;;;;;;;7.83;7.33;;;39.00;37.90;;;;;;4985849;28;20443;-72
2023/07/11 12:12:18;;;;;;;8.73;8.03;;;38.40;38.40;;;;;;4983681;28;20470;-72
2023/07/11 12:14:58;;;;;;;8.20;7.60;;;37.90;39.60;;;;;;4982853;28;21019;-71
2023/07/11 12:17:42;;;;;;;8.80;7.93;;;37.60;40.10;;;;;;4984720;28;20442;-74
2023/07/11 12:20:08;;;;;;;8.17;7.47;;;37.30;40.70;;;;;;4986462;28;20449;-75
2023/07/11 12:22:36;;;;;;;8.73;7.83;;;37.00;41.40;;;;;;4984535;28;20442;-74
2023/07/11 12:25:20;;;;;;;9.47;8.57;;;36.90;42.00;;;;;;4983024;28;20218;-72
2023/07/11 12:28:01;;;;;;;8.40;7.70;;;36.80;42.20;;;;;;4983518;28;20528;-72
2023/07/11 12:30:53;;;;;;;8.53;7.77;;;36.80;42.60;;;;;;4999035;28;20671;-72
2023/07/11 12:33:38;;;;;;;12.27;10.17;;;36.90;42.40;;;;;;4977308;28;20997;-71
2023/07/11 12:36:07;;;;;;;8.57;7.80;;;37.00;42.40;;;;;;4982439;28;20446;-71
2023/07/11 12:38:41;;;;;;;8.63;7.83;;;36.70;42.40;;;;;;4993584;28;20460;-70
2023/07/11 12:41:36;;;;;;;8.80;8.00;;;36.70;42.70;;;;;;4983500;28;20438;-70
2023/07/11 12:44:04;;;;;;;8.97;8.13;;;36.80;43.30;;;;;;4970580;28;20482;-72
2023/07/11 12:46:35;;;;;;;8.23;7.63;;;36.50;43.50;;;;;;4984014;28;20450;-72
2023/07/11 12:49:03;;;;;;;9.53;7.87;;;36.50;42.90;;;;;;4982068;28;20465;-72
2023/07/11 12:51:34;;;;;;;8.93;8.17;;;36.40;42.80;;;;;;4979923;28;20466;-71
2023/07/11 12:54:21;;;;;;;7.90;7.30;;;36.30;42.70;;;;;;4984325;28;20486;-73
2023/07/11 12:56:48;;;;;;;7.80;7.10;;;36.40;42.80;;;;;;4983247;28;20442;-73